sensor_id;sensor_type;location;lat;lon;timestamp;temperature;humidity
18163;DHT22;9206;50.994;4.538;2023-11-19T00:02:13;13.30;99.90
18163;DHT22;9206;50.994;4.538;2023-11-19T00:05:07;13.30;99.90
18163;DHT22;9206;50.994;4.538;2023-11-19T00:08:03;13.20;99.90
18163;DHT22;9206;50.994;4.538;2023-11-19T00:10:54;13.30;99.90
18163;DHT22;9206;50.994;4.538;2023-11-19T00:13:41;13.30;99.90
18163;DHT22;9206;50.994;4.538;2023-11-19T00:16:28;13.30;99.90
18163;DHT22;9206;50.994;4.538;2023-11-19T00:19:19;13.30;99.90
18163;DHT22;9206;50.994;4.538;2023-11-19T00:22:06;13.30;99.90
18163;DHT22;9206;50.994;4.538;2023-11-19T00:25:03;13.30;99.90
18163;DHT22;9206;50.994;4.538;2023-11-19T00:27:54;13.30;99.90
18163;DHT22;9206;50.994;4.538;2023-11-19T00:30:45;13.30;99.90
18163;DHT22;9206;50.994;4.538;2023-11-19T00:33:32;13.30;99.90
18163;DHT22;9206;50.994;4.538;2023-11-19T00:36:26;13.30;99.90
18163;DHT22;9206;50.994;4.538;2023-11-19T00:39:20;13.30;99.90
18163;DHT22;9206;50.994;4.538;2023-11-19T00:42:08;13.30;99.90
18163;DHT22;9206;50.994;4.538;2023-11-19T00:45:03;13.20;99.90
18163;DHT22;9206;50.994;4.538;2023-11-19T00:47:54;13.40;99.90
18163;DHT22;9206;50.994;4.538;2023-11-19T00:50:41;13.40;99.90
18163;DHT22;9206;50.994;4.538;2023-11-19T00:53:30;13.40;99.90
18163;DHT22;9206;50.994;4.538;2023-11-19T00:56:25;13.40;99.90
18163;DHT22;9206;50.994;4.538;2023-11-19T00:59:13;13.40;99.90
18163;DHT22;9206;50.994;4.538;2023-11-19T01:02:02;13.50;99.90
18163;DHT22;9206;50.994;4.538;2023-11-19T01:05:08;13.50;99.90
18163;DHT22;9206;50.994;4.538;2023-11-19T01:07:56;13.40;99.90
18163;DHT22;9206;50.994;4.538;2023-11-19T01:10:43;13.50;99.90
18163;DHT22;9206;50.994;4.538;2023-11-19T01:13:30;13.40;99.90
18163;DHT22;9206;50.994;4.538;2023-11-19T01:16:19;13.40;99.90
18163;DHT22;9206;50.994;4.538;2023-11-19T01:19:09;13.40;99.90
18163;DHT22;9206;50.994;4.538;2023-11-19T01:21:56;13.40;99.90
18163;DHT22;9206;50.994;4.538;2023-11-19T01:24:44;13.40;99.90
18163;DHT22;9206;50.994;4.538;2023-11-19T01:27:43;13.40;99.90
18163;DHT22;9206;50.994;4.538;2023-11-19T01:30:30;13.40;99.90
18163;DHT22;9206;50.994;4.538;2023-11-19T01:33:20;13.40;99.90
18163;DHT22;9206;50.994;4.538;2023-11-19T01:36:16;13.40;99.90
18163;DHT22;9206;50.994;4.538;2023-11-19T01:39:06;13.40;99.90
18163;DHT22;9206;50.994;4.538;2023-11-19T01:41:54;13.50;99.90
18163;DHT22;9206;50.994;4.538;2023-11-19T01:44:41;13.40;99.90
18163;DHT22;9206;50.994;4.538;2023-11-19T01:47:30;13.40;99.90
18163;DHT22;9206;50.994;4.538;2023-11-19T01:50:19;13.40;99.90
18163;DHT22;9206;50.994;4.538;2023-11-19T01:53:07;13.30;99.90
18163;DHT22;9206;50.994;4.538;2023-11-19T01:55:55;13.20;99.90
18163;DHT22;9206;50.994;4.538;2023-11-19T01:58:43;13.10;99.90
18163;DHT22;9206;50.994;4.538;2023-11-19T02:01:32;13.20;99.90
18163;DHT22;9206;50.994;4.538;2023-11-19T02:04:23;13.10;99.90
18163;DHT22;9206;50.994;4.538;2023-11-19T02:07:12;13.10;99.90
18163;DHT22;9206;50.994;4.538;2023-11-19T02:10:00;13.10;99.90
18163;DHT22;9206;50.994;4.538;2023-11-19T02:12:51;13.00;99.90
18163;DHT22;9206;50.994;4.538;2023-11-19T02:15:38;13.00;99.90
18163;DHT22;9206;50.994;4.538;2023-11-19T02:18:27;13.00;99.90
18163;DHT22;9206;50.994;4.538;2023-11-19T02:21:14;12.80;99.90
18163;DHT22;9206;50.994;4.538;2023-11-19T02:24:22;12.80;99.90
18163;DHT22;9206;50.994;4.538;2023-11-19T02:27:18;12.80;99.90
18163;DHT22;9206;50.994;4.538;2023-11-19T02:30:13;12.90;99.90
18163;DHT22;9206;50.994;4.538;2023-11-19T02:33:00;12.80;99.90
18163;DHT22;9206;50.994;4.538;2023-11-19T02:35:51;12.90;99.90
18163;DHT22;9206;50.994;4.538;2023-11-19T02:38:38;12.90;99.90
18163;DHT22;9206;50.994;4.538;2023-11-19T02:41:25;12.90;99.90
18163;DHT22;9206;50.994;4.538;2023-11-19T02:44:13;12.90;99.90
18163;DHT22;9206;50.994;4.538;2023-11-19T02:47:05;12.90;99.90
18163;DHT22;9206;50.994;4.538;2023-11-19T02:49:54;12.90;99.90
18163;DHT22;9206;50.994;4.538;2023-11-19T02:52:41;12.90;99.90
18163;DHT22;9206;50.994;4.538;2023-11-19T02:55:28;12.90;99.90
18163;DHT22;9206;50.994;4.538;2023-11-19T02:58:27;12.90;99.90
18163;DHT22;9206;50.994;4.538;2023-11-19T03:01:21;12.90;99.90
18163;DHT22;9206;50.994;4.538;2023-11-19T03:04:16;12.80;99.90
18163;DHT22;9206;50.994;4.538;2023-11-19T03:07:07;12.80;99.90
18163;DHT22;9206;50.994;4.538;2023-11-19T03:09:54;12.80;99.90
18163;DHT22;9206;50.994;4.538;2023-11-19T03:12:43;12.70;99.90
18163;DHT22;9206;50.994;4.538;2023-11-19T03:15:33;12.60;99.90
18163;DHT22;9206;50.994;4.538;2023-11-19T03:18:20;12.70;99.90
18163;DHT22;9206;50.994;4.538;2023-11-19T03:21:09;12.70;99.90
18163;DHT22;9206;50.994;4.538;2023-11-19T03:23:56;12.70;99.90
18163;DHT22;9206;50.994;4.538;2023-11-19T03:26:48;12.70;99.90
18163;DHT22;9206;50.994;4.538;2023-11-19T03:29:36;12.60;99.90
18163;DHT22;9206;50.994;4.538;2023-11-19T03:32:24;12.60;99.90
18163;DHT22;9206;50.994;4.538;2023-11-19T03:35:28;12.50;99.90
18163;DHT22;9206;50.994;4.538;2023-11-19T03:38:16;12.50;99.90
18163;DHT22;9206;50.994;4.538;2023-11-19T03:41:10;12.40;99.90
18163;DHT22;9206;50.994;4.538;2023-11-19T03:43:57;12.40;99.90
18163;DHT22;9206;50.994;4.538;2023-11-19T03:46:45;12.40;99.90
18163;DHT22;9206;50.994;4.538;2023-11-19T03:49:32;12.30;99.90
18163;DHT22;9206;50.994;4.538;2023-11-19T03:52:28;12.40;99.90
18163;DHT22;9206;50.994;4.538;2023-11-19T03:55:20;12.40;99.90
18163;DHT22;9206;50.994;4.538;2023-11-19T03:58:08;12.30;99.90
18163;DHT22;9206;50.994;4.538;2023-11-19T04:01:28;12.30;99.90
18163;DHT22;9206;50.994;4.538;2023-11-19T04:04:15;12.30;99.90
18163;DHT22;9206;50.994;4.538;2023-11-19T04:07:03;12.30;99.90
18163;DHT22;9206;50.994;4.538;2023-11-19T04:09:50;12.20;99.90
18163;DHT22;9206;50.994;4.538;2023-11-19T04:12:39;12.30;99.90
18163;DHT22;9206;50.994;4.538;2023-11-19T04:15:29;12.30;99.90
18163;DHT22;9206;50.994;4.538;2023-11-19T04:18:16;12.30;99.90
18163;DHT22;9206;50.994;4.538;2023-11-19T04:21:11;12.20;99.90
18163;DHT22;9206;50.994;4.538;2023-11-19T04:23:59;12.10;99.90
18163;DHT22;9206;50.994;4.538;2023-11-19T04:26:47;12.10;99.90
18163;DHT22;9206;50.994;4.538;2023-11-19T04:29:36;12.10;99.90
18163;DHT22;9206;50.994;4.538;2023-11-19T04:35:12;12.20;99.90
18163;DHT22;9206;50.994;4.538;2023-11-19T04:38:00;12.10;99.90
18163;DHT22;9206;50.994;4.538;2023-11-19T04:40:47;12.10;99.90
18163;DHT22;9206;50.994;4.538;2023-11-19T04:43:35;12.10;99.90
18163;DHT22;9206;50.994;4.538;2023-11-19T04:46:24;12.00;99.90
18163;DHT22;9206;50.994;4.538;2023-11-19T04:49:19;11.90;99.90
18163;DHT22;9206;50.994;4.538;2023-11-19T04:52:26;11.80;99.90
18163;DHT22;9206;50.994;4.538;2023-11-19T04:55:14;11.90;99.90
18163;DHT22;9206;50.994;4.538;2023-11-19T04:58:01;11.90;99.90
18163;DHT22;9206;50.994;4.538;2023-11-19T05:00:50;11.90;99.90
18163;DHT22;9206;50.994;4.538;2023-11-19T05:03:39;11.90;99.90
18163;DHT22;9206;50.994;4.538;2023-11-19T05:06:26;11.90;99.90
18163;DHT22;9206;50.994;4.538;2023-11-19T05:09:15;11.90;99.90
18163;DHT22;9206;50.994;4.538;2023-11-19T05:12:02;12.00;99.90
18163;DHT22;9206;50.994;4.538;2023-11-19T05:14:50;11.90;99.90
18163;DHT22;9206;50.994;4.538;2023-11-19T05:17:37;11.80;99.90
18163;DHT22;9206;50.994;4.538;2023-11-19T05:20:26;11.80;99.90
18163;DHT22;9206;50.994;4.538;2023-11-19T05:23:23;11.70;99.90
18163;DHT22;9206;50.994;4.538;2023-11-19T05:29:30;11.70;99.90
18163;DHT22;9206;50.994;4.538;2023-11-19T05:32:18;11.60;99.90
18163;DHT22;9206;50.994;4.538;2023-11-19T05:35:08;11.60;99.90
18163;DHT22;9206;50.994;4.538;2023-11-19T05:37:58;11.60;99.90
18163;DHT22;9206;50.994;4.538;2023-11-19T05:40:54;11.50;99.90
18163;DHT22;9206;50.994;4.538;2023-11-19T05:43:45;11.40;99.90
18163;DHT22;9206;50.994;4.538;2023-11-19T05:46:32;11.30;99.90
18163;DHT22;9206;50.994;4.538;2023-11-19T05:49:19;11.30;99.90
18163;DHT22;9206;50.994;4.538;2023-11-19T05:52:07;11.30;99.90
18163;DHT22;9206;50.994;4.538;2023-11-19T05:54:58;11.30;99.90
18163;DHT22;9206;50.994;4.538;2023-11-19T05:57:45;11.20;99.90
18163;DHT22;9206;50.994;4.538;2023-11-19T06:00:47;11.20;99.90
18163;DHT22;9206;50.994;4.538;2023-11-19T06:03:36;11.20;99.90
18163;DHT22;9206;50.994;4.538;2023-11-19T06:06:24;11.20;99.90
18163;DHT22;9206;50.994;4.538;2023-11-19T06:09:17;11.20;99.90
18163;DHT22;9206;50.994;4.538;2023-11-19T06:12:06;11.30;99.90
18163;DHT22;9206;50.994;4.538;2023-11-19T06:14:54;11.20;99.90
18163;DHT22;9206;50.994;4.538;2023-11-19T06:17:42;11.30;99.90
18163;DHT22;9206;50.994;4.538;2023-11-19T06:20:33;11.30;99.90
18163;DHT22;9206;50.994;4.538;2023-11-19T06:23:21;11.40;99.90
18163;DHT22;9206;50.994;4.538;2023-11-19T06:26:19;11.40;99.90
18163;DHT22;9206;50.994;4.538;2023-11-19T06:29:18;11.50;99.90
18163;DHT22;9206;50.994;4.538;2023-11-19T06:32:05;11.50;99.90
18163;DHT22;9206;50.994;4.538;2023-11-19T06:34:54;11.50;99.90
18163;DHT22;9206;50.994;4.538;2023-11-19T06:37:41;11.40;99.90
18163;DHT22;9206;50.994;4.538;2023-11-19T06:40:29;11.30;99.90
18163;DHT22;9206;50.994;4.538;2023-11-19T06:43:18;11.30;99.90
18163;DHT22;9206;50.994;4.538;2023-11-19T06:46:20;11.20;99.90
18163;DHT22;9206;50.994;4.538;2023-11-19T06:49:18;11.20;99.90
18163;DHT22;9206;50.994;4.538;2023-11-19T06:52:05;11.30;99.90
18163;DHT22;9206;50.994;4.538;2023-11-19T06:54:52;11.40;99.90
18163;DHT22;9206;50.994;4.538;2023-11-19T06:57:39;11.30;99.90
18163;DHT22;9206;50.994;4.538;2023-11-19T07:00:27;11.20;99.90
18163;DHT22;9206;50.994;4.538;2023-11-19T07:03:17;11.30;99.90
18163;DHT22;9206;50.994;4.538;2023-11-19T07:06:06;11.30;99.90
18163;DHT22;9206;50.994;4.538;2023-11-19T07:08:54;11.30;99.90
18163;DHT22;9206;50.994;4.538;2023-11-19T07:11:41;11.30;99.90
18163;DHT22;9206;50.994;4.538;2023-11-19T07:14:31;11.20;99.90
18163;DHT22;9206;50.994;4.538;2023-11-19T07:17:18;11.20;99.90
18163;DHT22;9206;50.994;4.538;2023-11-19T07:20:08;11.20;99.90
18163;DHT22;9206;50.994;4.538;2023-11-19T07:23:09;11.30;99.90
18163;DHT22;9206;50.994;4.538;2023-11-19T07:25:56;11.30;99.90
18163;DHT22;9206;50.994;4.538;2023-11-19T07:28:44;11.30;99.90
18163;DHT22;9206;50.994;4.538;2023-11-19T07:31:32;11.30;99.90
18163;DHT22;9206;50.994;4.538;2023-11-19T07:34:21;11.30;99.90
18163;DHT22;9206;50.994;4.538;2023-11-19T07:37:09;11.40;99.90
18163;DHT22;9206;50.994;4.538;2023-11-19T07:39:57;11.40;99.90
18163;DHT22;9206;50.994;4.538;2023-11-19T07:42:44;11.40;99.90
18163;DHT22;9206;50.994;4.538;2023-11-19T07:45:32;11.50;99.90
18163;DHT22;9206;50.994;4.538;2023-11-19T07:48:20;11.50;99.90
18163;DHT22;9206;50.994;4.538;2023-11-19T07:51:11;11.60;99.90
18163;DHT22;9206;50.994;4.538;2023-11-19T07:54:05;11.70;99.90
18163;DHT22;9206;50.994;4.538;2023-11-19T07:56:58;11.70;99.90
18163;DHT22;9206;50.994;4.538;2023-11-19T07:59:48;11.80;99.90
18163;DHT22;9206;50.994;4.538;2023-11-19T08:02:39;11.90;99.90
18163;DHT22;9206;50.994;4.538;2023-11-19T08:05:27;11.90;99.90
18163;DHT22;9206;50.994;4.538;2023-11-19T08:08:16;12.00;99.90
18163;DHT22;9206;50.994;4.538;2023-11-19T08:11:05;12.20;99.90
18163;DHT22;9206;50.994;4.538;2023-11-19T08:13:59;12.20;99.90
18163;DHT22;9206;50.994;4.538;2023-11-19T08:16:47;12.20;99.90
18163;DHT22;9206;50.994;4.538;2023-11-19T08:19:35;12.30;99.90
18163;DHT22;9206;50.994;4.538;2023-11-19T08:22:26;12.40;99.90
18163;DHT22;9206;50.994;4.538;2023-11-19T08:25:19;12.50;99.90
18163;DHT22;9206;50.994;4.538;2023-11-19T08:28:10;12.50;99.90
18163;DHT22;9206;50.994;4.538;2023-11-19T08:31:01;12.50;99.90
18163;DHT22;9206;50.994;4.538;2023-11-19T08:33:53;12.50;99.90
18163;DHT22;9206;50.994;4.538;2023-11-19T08:37:05;12.60;99.90
18163;DHT22;9206;50.994;4.538;2023-11-19T08:40:08;12.70;99.90
18163;DHT22;9206;50.994;4.538;2023-11-19T08:42:59;12.80;99.90
18163;DHT22;9206;50.994;4.538;2023-11-19T08:45:51;12.90;99.90
18163;DHT22;9206;50.994;4.538;2023-11-19T08:48:42;13.00;99.90
18163;DHT22;9206;50.994;4.538;2023-11-19T08:51:29;13.00;99.90
18163;DHT22;9206;50.994;4.538;2023-11-19T08:54:26;13.00;99.90
18163;DHT22;9206;50.994;4.538;2023-11-19T08:57:16;12.90;99.90
18163;DHT22;9206;50.994;4.538;2023-11-19T09:00:05;12.70;99.90
18163;DHT22;9206;50.994;4.538;2023-11-19T09:02:55;12.60;99.90
18163;DHT22;9206;50.994;4.538;2023-11-19T09:05:44;12.60;99.90
18163;DHT22;9206;50.994;4.538;2023-11-19T09:08:37;12.60;99.90
18163;DHT22;9206;50.994;4.538;2023-11-19T09:11:33;12.60;99.90
18163;DHT22;9206;50.994;4.538;2023-11-19T09:14:26;12.60;99.90
18163;DHT22;9206;50.994;4.538;2023-11-19T09:17:16;12.80;99.90
18163;DHT22;9206;50.994;4.538;2023-11-19T09:20:27;14.50;99.90
18163;DHT22;9206;50.994;4.538;2023-11-19T09:23:21;16.00;99.90
18163;DHT22;9206;50.994;4.538;2023-11-19T09:26:09;17.30;99.90
18163;DHT22;9206;50.994;4.538;2023-11-19T09:29:05;17.60;99.90
18163;DHT22;9206;50.994;4.538;2023-11-19T09:31:56;18.20;99.90
18163;DHT22;9206;50.994;4.538;2023-11-19T09:34:50;18.70;99.90
18163;DHT22;9206;50.994;4.538;2023-11-19T09:37:43;19.30;99.90
18163;DHT22;9206;50.994;4.538;2023-11-19T09:40:30;19.30;99.90
18163;DHT22;9206;50.994;4.538;2023-11-19T09:47:30;20.20;99.90
18163;DHT22;9206;50.994;4.538;2023-11-19T10:00:31;18.80;99.90
18163;DHT22;9206;50.994;4.538;2023-11-19T10:03:48;16.70;99.90
18163;DHT22;9206;50.994;4.538;2023-11-19T10:06:37;15.60;99.90
18163;DHT22;9206;50.994;4.538;2023-11-19T10:09:24;14.60;99.90
18163;DHT22;9206;50.994;4.538;2023-11-19T10:12:13;14.20;99.90
18163;DHT22;9206;50.994;4.538;2023-11-19T10:18:17;14.90;99.90
18163;DHT22;9206;50.994;4.538;2023-11-19T10:21:08;16.90;99.90
18163;DHT22;9206;50.994;4.538;2023-11-19T10:24:07;17.70;99.90
18163;DHT22;9206;50.994;4.538;2023-11-19T10:27:01;18.20;99.90
18163;DHT22;9206;50.994;4.538;2023-11-19T10:30:01;18.20;99.90
18163;DHT22;9206;50.994;4.538;2023-11-19T10:33:13;17.40;99.90
18163;DHT22;9206;50.994;4.538;2023-11-19T10:36:07;16.80;99.90
18163;DHT22;9206;50.994;4.538;2023-11-19T10:39:01;17.40;99.90
18163;DHT22;9206;50.994;4.538;2023-11-19T10:41:49;16.60;99.90
18163;DHT22;9206;50.994;4.538;2023-11-19T10:44:36;15.70;99.90
18163;DHT22;9206;50.994;4.538;2023-11-19T10:47:38;15.20;99.90
18163;DHT22;9206;50.994;4.538;2023-11-19T10:50:26;15.00;99.90
18163;DHT22;9206;50.994;4.538;2023-11-19T10:53:18;14.50;99.90
18163;DHT22;9206;50.994;4.538;2023-11-19T10:56:09;14.20;99.90
18163;DHT22;9206;50.994;4.538;2023-11-19T10:59:06;14.10;99.90
18163;DHT22;9206;50.994;4.538;2023-11-19T11:02:03;13.80;99.90
18163;DHT22;9206;50.994;4.538;2023-11-19T11:04:57;13.80;99.90
18163;DHT22;9206;50.994;4.538;2023-11-19T11:07:52;14.20;99.90
18163;DHT22;9206;50.994;4.538;2023-11-19T11:10:50;15.10;99.90
18163;DHT22;9206;50.994;4.538;2023-11-19T11:13:44;15.50;99.90
18163;DHT22;9206;50.994;4.538;2023-11-19T11:16:34;15.20;99.90
18163;DHT22;9206;50.994;4.538;2023-11-19T11:19:25;14.60;99.90
18163;DHT22;9206;50.994;4.538;2023-11-19T11:22:16;14.40;99.90
18163;DHT22;9206;50.994;4.538;2023-11-19T11:25:24;14.40;99.90
18163;DHT22;9206;50.994;4.538;2023-11-19T11:28:27;14.50;99.90
18163;DHT22;9206;50.994;4.538;2023-11-19T11:37:31;18.50;99.90
18163;DHT22;9206;50.994;4.538;2023-11-19T11:40:41;19.80;99.90
18163;DHT22;9206;50.994;4.538;2023-11-19T11:49:14;19.50;99.90
18163;DHT22;9206;50.994;4.538;2023-11-19T11:52:09;21.20;99.90
18163;DHT22;9206;50.994;4.538;2023-11-19T11:55:33;21.90;99.90
18163;DHT22;9206;50.994;4.538;2023-11-19T11:59:07;22.50;99.90
18163;DHT22;9206;50.994;4.538;2023-11-19T12:02:22;20.90;99.90
18163;DHT22;9206;50.994;4.538;2023-11-19T12:05:57;19.20;99.90
18163;DHT22;9206;50.994;4.538;2023-11-19T12:09:09;17.10;99.90
18163;DHT22;9206;50.994;4.538;2023-11-19T12:12:35;16.00;99.90
18163;DHT22;9206;50.994;4.538;2023-11-19T12:16:12;15.30;99.90
18163;DHT22;9206;50.994;4.538;2023-11-19T12:19:27;15.10;99.90
18163;DHT22;9206;50.994;4.538;2023-11-19T12:25:21;14.90;99.90
18163;DHT22;9206;50.994;4.538;2023-11-19T12:28:18;14.60;99.90
18163;DHT22;9206;50.994;4.538;2023-11-19T12:31:18;14.30;99.90
18163;DHT22;9206;50.994;4.538;2023-11-19T12:34:20;14.30;99.90
18163;DHT22;9206;50.994;4.538;2023-11-19T12:37:16;14.40;99.90
18163;DHT22;9206;50.994;4.538;2023-11-19T12:40:11;14.20;99.90
18163;DHT22;9206;50.994;4.538;2023-11-19T12:43:03;14.20;99.90
18163;DHT22;9206;50.994;4.538;2023-11-19T12:46:01;13.90;99.90
18163;DHT22;9206;50.994;4.538;2023-11-19T12:48:55;13.80;99.90
18163;DHT22;9206;50.994;4.538;2023-11-19T12:51:52;13.70;99.90
18163;DHT22;9206;50.994;4.538;2023-11-19T12:54:57;13.80;99.90
18163;DHT22;9206;50.994;4.538;2023-11-19T12:57:57;13.80;99.90
18163;DHT22;9206;50.994;4.538;2023-11-19T13:01:00;13.80;99.90
18163;DHT22;9206;50.994;4.538;2023-11-19T13:03:55;13.90;99.90
18163;DHT22;9206;50.994;4.538;2023-11-19T13:07:01;13.90;99.90
18163;DHT22;9206;50.994;4.538;2023-11-19T13:10:18;13.90;99.90
18163;DHT22;9206;50.994;4.538;2023-11-19T13:13:14;13.80;99.90
18163;DHT22;9206;50.994;4.538;2023-11-19T13:16:14;13.70;99.90
18163;DHT22;9206;50.994;4.538;2023-11-19T13:19:10;13.60;99.90
18163;DHT22;9206;50.994;4.538;2023-11-19T13:22:00;13.60;99.90
18163;DHT22;9206;50.994;4.538;2023-11-19T13:24:50;13.60;99.90
18163;DHT22;9206;50.994;4.538;2023-11-19T13:27:41;13.50;99.90
18163;DHT22;9206;50.994;4.538;2023-11-19T13:30:28;13.40;99.90
18163;DHT22;9206;50.994;4.538;2023-11-19T13:33:17;13.30;99.90
18163;DHT22;9206;50.994;4.538;2023-11-19T13:36:12;13.20;99.90
18163;DHT22;9206;50.994;4.538;2023-11-19T13:39:00;13.10;99.90
18163;DHT22;9206;50.994;4.538;2023-11-19T13:41:54;12.90;99.90
18163;DHT22;9206;50.994;4.538;2023-11-19T13:44:50;13.00;99.90
18163;DHT22;9206;50.994;4.538;2023-11-19T13:47:41;13.50;99.90
18163;DHT22;9206;50.994;4.538;2023-11-19T13:50:31;14.00;99.90
18163;DHT22;9206;50.994;4.538;2023-11-19T13:53:20;15.00;99.90
18163;DHT22;9206;50.994;4.538;2023-11-19T13:56:11;16.20;99.90
18163;DHT22;9206;50.994;4.538;2023-11-19T13:59:00;17.30;99.90
18163;DHT22;9206;50.994;4.538;2023-11-19T14:01:48;17.70;99.90
18163;DHT22;9206;50.994;4.538;2023-11-19T14:04:36;16.70;99.90
18163;DHT22;9206;50.994;4.538;2023-11-19T14:07:25;15.20;99.90
18163;DHT22;9206;50.994;4.538;2023-11-19T14:10:15;14.50;99.90
18163;DHT22;9206;50.994;4.538;2023-11-19T14:13:02;14.20;99.90
18163;DHT22;9206;50.994;4.538;2023-11-19T14:15:53;14.00;99.90
18163;DHT22;9206;50.994;4.538;2023-11-19T14:18:51;13.80;99.90
18163;DHT22;9206;50.994;4.538;2023-11-19T14:21:57;13.60;99.90
18163;DHT22;9206;50.994;4.538;2023-11-19T14:24:51;13.50;99.90
18163;DHT22;9206;50.994;4.538;2023-11-19T14:27:45;13.40;99.90
18163;DHT22;9206;50.994;4.538;2023-11-19T14:30:38;13.30;99.90
18163;DHT22;9206;50.994;4.538;2023-11-19T14:33:30;13.20;99.90
18163;DHT22;9206;50.994;4.538;2023-11-19T14:36:19;13.10;99.90
18163;DHT22;9206;50.994;4.538;2023-11-19T14:39:12;12.90;99.90
18163;DHT22;9206;50.994;4.538;2023-11-19T14:42:01;12.80;99.90
18163;DHT22;9206;50.994;4.538;2023-11-19T14:45:01;12.70;99.90
18163;DHT22;9206;50.994;4.538;2023-11-19T14:47:54;12.70;99.90
18163;DHT22;9206;50.994;4.538;2023-11-19T14:50:47;12.70;99.90
18163;DHT22;9206;50.994;4.538;2023-11-19T14:53:41;12.70;99.90
18163;DHT22;9206;50.994;4.538;2023-11-19T14:56:32;12.60;99.90
18163;DHT22;9206;50.994;4.538;2023-11-19T14:59:23;12.60;99.90
18163;DHT22;9206;50.994;4.538;2023-11-19T15:02:14;12.60;99.90
18163;DHT22;9206;50.994;4.538;2023-11-19T15:05:05;12.60;99.90
18163;DHT22;9206;50.994;4.538;2023-11-19T15:07:52;12.60;99.90
18163;DHT22;9206;50.994;4.538;2023-11-19T15:10:39;12.60;99.90
18163;DHT22;9206;50.994;4.538;2023-11-19T15:13:29;12.60;99.90
18163;DHT22;9206;50.994;4.538;2023-11-19T15:16:20;12.70;99.90
18163;DHT22;9206;50.994;4.538;2023-11-19T15:19:14;12.60;99.90
18163;DHT22;9206;50.994;4.538;2023-11-19T15:22:03;12.70;99.90
18163;DHT22;9206;50.994;4.538;2023-11-19T15:24:57;12.60;99.90
18163;DHT22;9206;50.994;4.538;2023-11-19T15:27:48;12.60;99.90
18163;DHT22;9206;50.994;4.538;2023-11-19T15:30:42;12.60;99.90
18163;DHT22;9206;50.994;4.538;2023-11-19T15:33:37;12.60;99.90
18163;DHT22;9206;50.994;4.538;2023-11-19T15:36:28;12.60;99.90
18163;DHT22;9206;50.994;4.538;2023-11-19T15:39:16;12.60;99.90
18163;DHT22;9206;50.994;4.538;2023-11-19T15:42:06;12.60;99.90
18163;DHT22;9206;50.994;4.538;2023-11-19T15:44:58;12.60;99.90
18163;DHT22;9206;50.994;4.538;2023-11-19T15:47:56;12.60;99.90
18163;DHT22;9206;50.994;4.538;2023-11-19T15:50:47;12.60;99.90
18163;DHT22;9206;50.994;4.538;2023-11-19T15:53:35;12.60;99.90
18163;DHT22;9206;50.994;4.538;2023-11-19T15:56:22;12.60;99.90
18163;DHT22;9206;50.994;4.538;2023-11-19T15:59:12;12.60;99.90
18163;DHT22;9206;50.994;4.538;2023-11-19T16:02:01;12.60;99.90
18163;DHT22;9206;50.994;4.538;2023-11-19T16:04:51;12.70;99.90
18163;DHT22;9206;50.994;4.538;2023-11-19T16:07:43;12.60;99.90
18163;DHT22;9206;50.994;4.538;2023-11-19T16:10:33;12.60;99.90
18163;DHT22;9206;50.994;4.538;2023-11-19T16:13:23;12.60;99.90
18163;DHT22;9206;50.994;4.538;2023-11-19T16:16:13;12.60;99.90
18163;DHT22;9206;50.994;4.538;2023-11-19T16:19:03;12.60;99.90
18163;DHT22;9206;50.994;4.538;2023-11-19T16:21:57;12.50;99.90
18163;DHT22;9206;50.994;4.538;2023-11-19T16:24:57;12.40;99.90
18163;DHT22;9206;50.994;4.538;2023-11-19T16:27:47;12.40;99.90
18163;DHT22;9206;50.994;4.538;2023-11-19T16:30:39;12.20;99.90
18163;DHT22;9206;50.994;4.538;2023-11-19T16:33:27;12.00;99.90
18163;DHT22;9206;50.994;4.538;2023-11-19T16:36:17;11.90;99.90
18163;DHT22;9206;50.994;4.538;2023-11-19T16:39:05;11.80;99.90
18163;DHT22;9206;50.994;4.538;2023-11-19T16:41:57;11.80;99.90
18163;DHT22;9206;50.994;4.538;2023-11-19T16:44:47;11.70;99.90
18163;DHT22;9206;50.994;4.538;2023-11-19T16:47:35;11.70;99.90
18163;DHT22;9206;50.994;4.538;2023-11-19T16:50:23;11.70;99.90
18163;DHT22;9206;50.994;4.538;2023-11-19T16:53:18;11.70;99.90
18163;DHT22;9206;50.994;4.538;2023-11-19T16:56:12;11.70;99.90
18163;DHT22;9206;50.994;4.538;2023-11-19T16:59:03;11.70;99.90
18163;DHT22;9206;50.994;4.538;2023-11-19T17:01:56;11.80;99.90
18163;DHT22;9206;50.994;4.538;2023-11-19T17:04:47;11.80;99.90
18163;DHT22;9206;50.994;4.538;2023-11-19T17:07:35;11.80;99.90
18163;DHT22;9206;50.994;4.538;2023-11-19T17:10:24;11.90;99.90
18163;DHT22;9206;50.994;4.538;2023-11-19T17:13:14;11.80;99.90
18163;DHT22;9206;50.994;4.538;2023-11-19T17:16:07;11.80;99.90
18163;DHT22;9206;50.994;4.538;2023-11-19T17:18:54;11.80;99.90
18163;DHT22;9206;50.994;4.538;2023-11-19T17:21:47;11.80;99.90
18163;DHT22;9206;50.994;4.538;2023-11-19T17:24:34;11.80;99.90
18163;DHT22;9206;50.994;4.538;2023-11-19T17:27:23;11.80;99.90
18163;DHT22;9206;50.994;4.538;2023-11-19T17:30:21;11.80;99.90
18163;DHT22;9206;50.994;4.538;2023-11-19T17:33:16;11.90;99.90
18163;DHT22;9206;50.994;4.538;2023-11-19T17:36:09;11.90;99.90
18163;DHT22;9206;50.994;4.538;2023-11-19T17:39:04;11.90;99.90
18163;DHT22;9206;50.994;4.538;2023-11-19T17:41:54;11.90;99.90
18163;DHT22;9206;50.994;4.538;2023-11-19T17:44:44;11.90;99.90
18163;DHT22;9206;50.994;4.538;2023-11-19T17:47:33;11.90;99.90
18163;DHT22;9206;50.994;4.538;2023-11-19T17:50:28;11.80;99.90
18163;DHT22;9206;50.994;4.538;2023-11-19T17:53:17;11.90;99.90
18163;DHT22;9206;50.994;4.538;2023-11-19T17:56:07;11.90;99.90
18163;DHT22;9206;50.994;4.538;2023-11-19T17:58:55;11.90;99.90
18163;DHT22;9206;50.994;4.538;2023-11-19T18:01:47;11.90;99.90
18163;DHT22;9206;50.994;4.538;2023-11-19T18:04:36;11.80;99.90
18163;DHT22;9206;50.994;4.538;2023-11-19T18:07:26;11.80;99.90
18163;DHT22;9206;50.994;4.538;2023-11-19T18:10:37;11.80;99.90
18163;DHT22;9206;50.994;4.538;2023-11-19T18:13:25;11.80;99.90
18163;DHT22;9206;50.994;4.538;2023-11-19T18:16:12;11.80;99.90
18163;DHT22;9206;50.994;4.538;2023-11-19T18:19:06;11.90;99.90
18163;DHT22;9206;50.994;4.538;2023-11-19T18:22:00;11.90;99.90
18163;DHT22;9206;50.994;4.538;2023-11-19T18:24:53;11.80;99.90
18163;DHT22;9206;50.994;4.538;2023-11-19T18:27:48;11.80;99.90
18163;DHT22;9206;50.994;4.538;2023-11-19T18:30:36;11.90;99.90
18163;DHT22;9206;50.994;4.538;2023-11-19T18:33:29;11.90;99.90
18163;DHT22;9206;50.994;4.538;2023-11-19T18:36:18;11.80;99.90
18163;DHT22;9206;50.994;4.538;2023-11-19T18:39:12;11.90;99.90
18163;DHT22;9206;50.994;4.538;2023-11-19T18:42:08;11.90;99.90
18163;DHT22;9206;50.994;4.538;2023-11-19T18:45:01;12.00;99.90
18163;DHT22;9206;50.994;4.538;2023-11-19T18:48:07;12.10;99.90
18163;DHT22;9206;50.994;4.538;2023-11-19T18:50:55;12.10;99.90
18163;DHT22;9206;50.994;4.538;2023-11-19T18:53:49;12.10;99.90
18163;DHT22;9206;50.994;4.538;2023-11-19T18:56:39;12.10;99.90
18163;DHT22;9206;50.994;4.538;2023-11-19T18:59:31;12.10;99.90
18163;DHT22;9206;50.994;4.538;2023-11-19T19:02:18;12.10;99.90
18163;DHT22;9206;50.994;4.538;2023-11-19T19:05:06;12.10;99.90